sensor_id;sensor_type;location;lat;lon;timestamp;P1;durP1;ratioP1;P2;durP2;ratioP2
43670;SDS011;29267;50.906;7.248;2024-01-11T00:01:19;45.65;;;14.88;;
43670;SDS011;29267;50.906;7.248;2024-01-11T00:03:45;34.08;;;12.75;;
43670;SDS011;29267;50.906;7.248;2024-01-11T00:06:10;31.85;;;12.32;;
43670;SDS011;29267;50.906;7.248;2024-01-11T00:08:36;31.63;;;12.77;;
43670;SDS011;29267;50.906;7.248;2024-01-11T00:11:02;34.20;;;13.27;;
43670;SDS011;29267;50.906;7.248;2024-01-11T00:13:28;38.60;;;13.43;;
43670;SDS011;29267;50.906;7.248;2024-01-11T00:15:54;33.80;;;14.57;;
43670;SDS011;29267;50.906;7.248;2024-01-11T00:18:19;41.28;;;14.07;;
43670;SDS011;29267;50.906;7.248;2024-01-11T00:20:45;35.05;;;14.90;;
43670;SDS011;29267;50.906;7.248;2024-01-11T00:23:11;34.92;;;12.95;;
43670;SDS011;29267;50.906;7.248;2024-01-11T00:25:36;37.05;;;14.55;;
43670;SDS011;29267;50.906;7.248;2024-01-11T00:28:02;37.67;;;15.07;;
43670;SDS011;29267;50.906;7.248;2024-01-11T00:30:28;37.95;;;13.38;;
43670;SDS011;29267;50.906;7.248;2024-01-11T00:32:53;33.58;;;14.30;;
43670;SDS011;29267;50.906;7.248;2024-01-11T00:35:19;26.10;;;12.57;;
43670;SDS011;29267;50.906;7.248;2024-01-11T00:37:45;34.75;;;13.48;;
43670;SDS011;29267;50.906;7.248;2024-01-11T00:40:11;39.95;;;14.10;;
43670;SDS011;29267;50.906;7.248;2024-01-11T00:42:36;35.70;;;13.48;;
43670;SDS011;29267;50.906;7.248;2024-01-11T00:45:02;34.70;;;13.60;;
43670;SDS011;29267;50.906;7.248;2024-01-11T00:47:28;39.10;;;13.43;;
43670;SDS011;29267;50.906;7.248;2024-01-11T00:49:53;33.92;;;13.75;;
43670;SDS011;29267;50.906;7.248;2024-01-11T00:52:19;32.83;;;12.10;;
43670;SDS011;29267;50.906;7.248;2024-01-11T00:54:44;41.65;;;14.80;;
43670;SDS011;29267;50.906;7.248;2024-01-11T00:57:10;37.63;;;14.38;;
43670;SDS011;29267;50.906;7.248;2024-01-11T00:59:36;30.00;;;13.90;;
43670;SDS011;29267;50.906;7.248;2024-01-11T01:02:01;43.13;;;15.38;;
43670;SDS011;29267;50.906;7.248;2024-01-11T01:04:27;36.38;;;13.88;;
43670;SDS011;29267;50.906;7.248;2024-01-11T01:06:52;37.47;;;14.73;;
43670;SDS011;29267;50.906;7.248;2024-01-11T01:09:18;31.95;;;12.45;;
43670;SDS011;29267;50.906;7.248;2024-01-11T01:11:43;41.53;;;13.88;;
43670;SDS011;29267;50.906;7.248;2024-01-11T01:14:09;34.33;;;15.57;;
43670;SDS011;29267;50.906;7.248;2024-01-11T01:16:35;34.75;;;13.85;;
43670;SDS011;29267;50.906;7.248;2024-01-11T01:19:00;38.78;;;14.38;;
43670;SDS011;29267;50.906;7.248;2024-01-11T01:21:26;28.23;;;12.38;;
43670;SDS011;29267;50.906;7.248;2024-01-11T01:23:52;44.25;;;13.77;;
43670;SDS011;29267;50.906;7.248;2024-01-11T01:26:17;33.38;;;12.98;;
43670;SDS011;29267;50.906;7.248;2024-01-11T01:28:43;39.90;;;14.23;;
43670;SDS011;29267;50.906;7.248;2024-01-11T01:31:09;38.03;;;13.85;;
43670;SDS011;29267;50.906;7.248;2024-01-11T01:33:35;29.52;;;12.75;;
43670;SDS011;29267;50.906;7.248;2024-01-11T01:36:01;42.30;;;14.45;;
43670;SDS011;29267;50.906;7.248;2024-01-11T01:38:26;37.33;;;14.00;;
43670;SDS011;29267;50.906;7.248;2024-01-11T01:40:52;35.47;;;12.45;;
43670;SDS011;29267;50.906;7.248;2024-01-11T01:43:17;35.40;;;13.77;;
43670;SDS011;29267;50.906;7.248;2024-01-11T01:45:43;29.57;;;12.60;;
43670;SDS011;29267;50.906;7.248;2024-01-11T01:48:08;37.13;;;12.23;;
43670;SDS011;29267;50.906;7.248;2024-01-11T01:50:34;39.27;;;15.00;;
43670;SDS011;29267;50.906;7.248;2024-01-11T01:53:00;43.97;;;14.80;;
43670;SDS011;29267;50.906;7.248;2024-01-11T01:55:26;29.37;;;12.70;;
43670;SDS011;29267;50.906;7.248;2024-01-11T01:57:53;40.93;;;14.40;;
43670;SDS011;29267;50.906;7.248;2024-01-11T02:00:20;42.37;;;13.17;;
43670;SDS011;29267;50.906;7.248;2024-01-11T02:02:46;35.60;;;12.73;;
43670;SDS011;29267;50.906;7.248;2024-01-11T02:05:17;40.87;;;12.77;;
43670;SDS011;29267;50.906;7.248;2024-01-11T02:07:43;49.40;;;13.85;;
43670;SDS011;29267;50.906;7.248;2024-01-11T02:10:09;33.38;;;13.40;;
43670;SDS011;29267;50.906;7.248;2024-01-11T02:12:35;37.10;;;14.20;;
43670;SDS011;29267;50.906;7.248;2024-01-11T02:15:04;34.27;;;12.53;;
43670;SDS011;29267;50.906;7.248;2024-01-11T02:17:30;41.60;;;14.90;;
43670;SDS011;29267;50.906;7.248;2024-01-11T02:19:56;36.77;;;14.10;;
43670;SDS011;29267;50.906;7.248;2024-01-11T02:22:24;31.70;;;13.70;;
43670;SDS011;29267;50.906;7.248;2024-01-11T02:24:56;33.10;;;14.47;;
43670;SDS011;29267;50.906;7.248;2024-01-11T02:27:23;43.10;;;13.85;;
43670;SDS011;29267;50.906;7.248;2024-01-11T02:29:48;34.50;;;13.77;;
43670;SDS011;29267;50.906;7.248;2024-01-11T02:32:14;38.50;;;14.80;;
43670;SDS011;29267;50.906;7.248;2024-01-11T02:34:40;38.80;;;14.90;;
43670;SDS011;29267;50.906;7.248;2024-01-11T02:37:06;33.17;;;13.03;;
43670;SDS011;29267;50.906;7.248;2024-01-11T02:39:32;34.83;;;13.07;;
43670;SDS011;29267;50.906;7.248;2024-01-11T02:41:59;33.63;;;12.43;;
43670;SDS011;29267;50.906;7.248;2024-01-11T02:44:25;36.67;;;14.87;;
43670;SDS011;29267;50.906;7.248;2024-01-11T02:46:50;34.43;;;13.23;;
43670;SDS011;29267;50.906;7.248;2024-01-11T02:49:16;32.47;;;13.13;;
43670;SDS011;29267;50.906;7.248;2024-01-11T02:51:42;36.20;;;14.20;;
43670;SDS011;29267;50.906;7.248;2024-01-11T02:54:08;42.70;;;13.97;;
43670;SDS011;29267;50.906;7.248;2024-01-11T02:56:33;33.73;;;12.60;;
43670;SDS011;29267;50.906;7.248;2024-01-11T02:58:59;36.73;;;13.40;;
43670;SDS011;29267;50.906;7.248;2024-01-11T03:01:25;33.13;;;12.93;;
43670;SDS011;29267;50.906;7.248;2024-01-11T03:03:50;33.43;;;13.00;;
43670;SDS011;29267;50.906;7.248;2024-01-11T03:06:16;37.90;;;13.57;;
43670;SDS011;29267;50.906;7.248;2024-01-11T03:08:46;41.23;;;13.30;;
43670;SDS011;29267;50.906;7.248;2024-01-11T03:11:13;33.77;;;13.90;;
43670;SDS011;29267;50.906;7.248;2024-01-11T03:13:39;32.77;;;12.30;;
43670;SDS011;29267;50.906;7.248;2024-01-11T03:16:04;37.37;;;13.17;;
43670;SDS011;29267;50.906;7.248;2024-01-11T03:18:30;29.47;;;13.03;;
43670;SDS011;29267;50.906;7.248;2024-01-11T03:20:56;41.00;;;15.53;;
43670;SDS011;29267;50.906;7.248;2024-01-11T03:23:22;36.47;;;14.47;;
43670;SDS011;29267;50.906;7.248;2024-01-11T03:25:47;36.97;;;13.90;;
43670;SDS011;29267;50.906;7.248;2024-01-11T03:28:13;31.43;;;13.47;;
43670;SDS011;29267;50.906;7.248;2024-01-11T03:30:39;36.93;;;12.90;;
43670;SDS011;29267;50.906;7.248;2024-01-11T03:33:04;32.00;;;12.67;;
43670;SDS011;29267;50.906;7.248;2024-01-11T03:35:30;30.63;;;13.43;;
43670;SDS011;29267;50.906;7.248;2024-01-11T03:37:56;35.87;;;13.47;;
43670;SDS011;29267;50.906;7.248;2024-01-11T03:40:21;31.27;;;13.17;;
43670;SDS011;29267;50.906;7.248;2024-01-11T03:42:47;39.63;;;13.03;;
43670;SDS011;29267;50.906;7.248;2024-01-11T03:45:13;30.37;;;13.40;;
43670;SDS011;29267;50.906;7.248;2024-01-11T03:47:38;39.70;;;16.27;;
43670;SDS011;29267;50.906;7.248;2024-01-11T03:50:04;33.87;;;12.80;;
43670;SDS011;29267;50.906;7.248;2024-01-11T03:52:30;36.43;;;13.37;;
43670;SDS011;29267;50.906;7.248;2024-01-11T03:54:55;35.13;;;12.53;;
43670;SDS011;29267;50.906;7.248;2024-01-11T03:57:21;39.20;;;13.53;;
43670;SDS011;29267;50.906;7.248;2024-01-11T03:59:46;36.93;;;13.70;;
43670;SDS011;29267;50.906;7.248;2024-01-11T04:02:12;30.13;;;12.40;;
43670;SDS011;29267;50.906;7.248;2024-01-11T04:04:38;35.90;;;13.63;;
43670;SDS011;29267;50.906;7.248;2024-01-11T04:07:03;31.90;;;13.30;;
43670;SDS011;29267;50.906;7.248;2024-01-11T04:09:29;40.80;;;15.37;;
43670;SDS011;29267;50.906;7.248;2024-01-11T04:11:54;34.30;;;13.33;;
43670;SDS011;29267;50.906;7.248;2024-01-11T04:14:20;33.07;;;13.07;;
43670;SDS011;29267;50.906;7.248;2024-01-11T04:16:46;35.63;;;13.63;;
43670;SDS011;29267;50.906;7.248;2024-01-11T04:19:11;35.50;;;14.73;;
43670;SDS011;29267;50.906;7.248;2024-01-11T04:21:37;31.17;;;13.70;;
43670;SDS011;29267;50.906;7.248;2024-01-11T04:24:06;31.37;;;13.83;;
43670;SDS011;29267;50.906;7.248;2024-01-11T04:26:32;36.97;;;13.90;;
43670;SDS011;29267;50.906;7.248;2024-01-11T04:28:58;30.43;;;12.17;;
43670;SDS011;29267;50.906;7.248;2024-01-11T04:31:25;38.13;;;13.33;;
43670;SDS011;29267;50.906;7.248;2024-01-11T04:33:51;37.30;;;13.70;;
43670;SDS011;29267;50.906;7.248;2024-01-11T04:36:16;33.63;;;13.10;;
43670;SDS011;29267;50.906;7.248;2024-01-11T04:38:42;32.73;;;13.10;;
43670;SDS011;29267;50.906;7.248;2024-01-11T04:41:09;33.33;;;14.00;;
43670;SDS011;29267;50.906;7.248;2024-01-11T04:43:39;34.33;;;13.53;;
43670;SDS011;29267;50.906;7.248;2024-01-11T04:46:14;34.50;;;13.27;;
43670;SDS011;29267;50.906;7.248;2024-01-11T04:48:44;31.67;;;11.53;;
43670;SDS011;29267;50.906;7.248;2024-01-11T04:51:10;36.93;;;13.23;;
43670;SDS011;29267;50.906;7.248;2024-01-11T04:53:37;38.43;;;14.17;;
43670;SDS011;29267;50.906;7.248;2024-01-11T04:56:04;33.77;;;13.40;;
43670;SDS011;29267;50.906;7.248;2024-01-11T04:58:31;36.63;;;14.63;;
43670;SDS011;29267;50.906;7.248;2024-01-11T05:00:57;36.33;;;13.17;;
43670;SDS011;29267;50.906;7.248;2024-01-11T05:03:22;38.07;;;14.40;;
43670;SDS011;29267;50.906;7.248;2024-01-11T05:05:48;35.50;;;12.47;;
43670;SDS011;29267;50.906;7.248;2024-01-11T05:08:13;34.93;;;13.10;;
43670;SDS011;29267;50.906;7.248;2024-01-11T05:10:39;25.93;;;11.30;;
43670;SDS011;29267;50.906;7.248;2024-01-11T05:13:05;31.57;;;13.10;;
43670;SDS011;29267;50.906;7.248;2024-01-11T05:15:30;32.13;;;13.07;;
43670;SDS011;29267;50.906;7.248;2024-01-11T05:17:56;33.80;;;12.40;;
43670;SDS011;29267;50.906;7.248;2024-01-11T05:20:22;36.63;;;14.10;;
43670;SDS011;29267;50.906;7.248;2024-01-11T05:22:47;42.23;;;14.90;;
43670;SDS011;29267;50.906;7.248;2024-01-11T05:25:13;33.10;;;14.23;;
43670;SDS011;29267;50.906;7.248;2024-01-11T05:27:39;42.73;;;14.37;;
43670;SDS011;29267;50.906;7.248;2024-01-11T05:30:05;34.60;;;13.67;;
43670;SDS011;29267;50.906;7.248;2024-01-11T05:32:31;29.40;;;13.63;;
43670;SDS011;29267;50.906;7.248;2024-01-11T05:34:56;37.90;;;13.67;;
43670;SDS011;29267;50.906;7.248;2024-01-11T05:37:22;39.93;;;13.83;;
43670;SDS011;29267;50.906;7.248;2024-01-11T05:39:48;42.07;;;14.77;;
43670;SDS011;29267;50.906;7.248;2024-01-11T05:42:13;34.87;;;13.87;;
43670;SDS011;29267;50.906;7.248;2024-01-11T05:44:39;32.90;;;12.53;;
43670;SDS011;29267;50.906;7.248;2024-01-11T05:47:04;42.00;;;15.03;;
43670;SDS011;29267;50.906;7.248;2024-01-11T05:49:30;36.23;;;14.20;;
43670;SDS011;29267;50.906;7.248;2024-01-11T05:51:55;35.87;;;13.50;;
43670;SDS011;29267;50.906;7.248;2024-01-11T05:54:21;38.17;;;14.37;;
43670;SDS011;29267;50.906;7.248;2024-01-11T05:56:47;37.73;;;14.90;;
43670;SDS011;29267;50.906;7.248;2024-01-11T05:59:12;27.73;;;12.00;;
43670;SDS011;29267;50.906;7.248;2024-01-11T06:01:41;31.73;;;13.20;;
43670;SDS011;29267;50.906;7.248;2024-01-11T06:04:11;33.25;;;13.18;;
43670;SDS011;29267;50.906;7.248;2024-01-11T06:06:36;40.93;;;13.67;;
43670;SDS011;29267;50.906;7.248;2024-01-11T06:09:02;33.83;;;13.03;;
43670;SDS011;29267;50.906;7.248;2024-01-11T06:11:29;36.27;;;14.33;;
43670;SDS011;29267;50.906;7.248;2024-01-11T06:13:55;39.07;;;13.43;;
43670;SDS011;29267;50.906;7.248;2024-01-11T06:16:21;44.67;;;15.87;;
43670;SDS011;29267;50.906;7.248;2024-01-11T06:18:46;40.00;;;16.87;;
43670;SDS011;29267;50.906;7.248;2024-01-11T06:21:12;41.40;;;15.30;;
43670;SDS011;29267;50.906;7.248;2024-01-11T06:23:37;40.47;;;13.47;;
43670;SDS011;29267;50.906;7.248;2024-01-11T06:26:03;37.87;;;14.93;;
43670;SDS011;29267;50.906;7.248;2024-01-11T06:28:29;39.33;;;14.90;;
43670;SDS011;29267;50.906;7.248;2024-01-11T06:30:55;33.03;;;14.23;;
43670;SDS011;29267;50.906;7.248;2024-01-11T06:33:20;42.77;;;15.57;;
43670;SDS011;29267;50.906;7.248;2024-01-11T06:35:46;41.63;;;16.87;;
43670;SDS011;29267;50.906;7.248;2024-01-11T06:38:12;39.60;;;14.40;;
43670;SDS011;29267;50.906;7.248;2024-01-11T06:40:37;34.57;;;15.47;;
43670;SDS011;29267;50.906;7.248;2024-01-11T06:43:03;45.00;;;15.60;;
43670;SDS011;29267;50.906;7.248;2024-01-11T06:45:28;39.07;;;15.63;;
43670;SDS011;29267;50.906;7.248;2024-01-11T06:47:54;42.60;;;16.03;;
43670;SDS011;29267;50.906;7.248;2024-01-11T06:50:19;40.10;;;14.53;;
43670;SDS011;29267;50.906;7.248;2024-01-11T06:52:45;42.83;;;15.57;;
43670;SDS011;29267;50.906;7.248;2024-01-11T06:55:11;41.57;;;15.53;;
43670;SDS011;29267;50.906;7.248;2024-01-11T06:57:36;42.70;;;16.20;;
43670;SDS011;29267;50.906;7.248;2024-01-11T07:00:02;41.90;;;16.23;;
43670;SDS011;29267;50.906;7.248;2024-01-11T07:02:28;46.87;;;19.07;;
43670;SDS011;29267;50.906;7.248;2024-01-11T07:04:53;54.23;;;19.43;;
43670;SDS011;29267;50.906;7.248;2024-01-11T07:07:19;45.23;;;17.10;;
43670;SDS011;29267;50.906;7.248;2024-01-11T07:09:45;40.67;;;15.50;;
43670;SDS011;29267;50.906;7.248;2024-01-11T07:12:10;46.90;;;16.07;;
43670;SDS011;29267;50.906;7.248;2024-01-11T07:14:36;52.00;;;17.10;;
43670;SDS011;29267;50.906;7.248;2024-01-11T07:17:01;44.20;;;16.30;;
43670;SDS011;29267;50.906;7.248;2024-01-11T07:19:28;42.50;;;14.93;;
43670;SDS011;29267;50.906;7.248;2024-01-11T07:21:54;41.00;;;15.50;;
43670;SDS011;29267;50.906;7.248;2024-01-11T07:24:20;39.23;;;14.73;;
43670;SDS011;29267;50.906;7.248;2024-01-11T07:26:45;41.10;;;16.63;;
43670;SDS011;29267;50.906;7.248;2024-01-11T07:29:11;65.90;;;21.53;;
43670;SDS011;29267;50.906;7.248;2024-01-11T07:31:36;171.07;;;44.80;;
43670;SDS011;29267;50.906;7.248;2024-01-11T07:34:02;113.87;;;35.83;;
43670;SDS011;29267;50.906;7.248;2024-01-11T07:36:28;50.47;;;20.90;;
43670;SDS011;29267;50.906;7.248;2024-01-11T07:38:53;44.23;;;17.67;;
43670;SDS011;29267;50.906;7.248;2024-01-11T07:41:21;45.20;;;16.20;;
43670;SDS011;29267;50.906;7.248;2024-01-11T07:43:47;49.63;;;17.50;;
43670;SDS011;29267;50.906;7.248;2024-01-11T07:46:13;43.57;;;15.93;;
43670;SDS011;29267;50.906;7.248;2024-01-11T07:48:38;47.60;;;18.30;;
43670;SDS011;29267;50.906;7.248;2024-01-11T07:51:04;54.47;;;20.50;;
43670;SDS011;29267;50.906;7.248;2024-01-11T07:53:30;76.27;;;27.73;;
43670;SDS011;29267;50.906;7.248;2024-01-11T07:55:57;52.37;;;18.90;;
43670;SDS011;29267;50.906;7.248;2024-01-11T07:58:22;58.93;;;17.57;;
43670;SDS011;29267;50.906;7.248;2024-01-11T08:00:48;42.27;;;17.70;;
43670;SDS011;29267;50.906;7.248;2024-01-11T08:03:14;43.60;;;17.30;;
43670;SDS011;29267;50.906;7.248;2024-01-11T08:05:40;43.93;;;15.60;;
43670;SDS011;29267;50.906;7.248;2024-01-11T08:08:06;46.23;;;16.63;;
43670;SDS011;29267;50.906;7.248;2024-01-11T08:10:31;40.97;;;15.93;;
43670;SDS011;29267;50.906;7.248;2024-01-11T08:12:57;39.97;;;14.70;;
43670;SDS011;29267;50.906;7.248;2024-01-11T08:15:24;41.43;;;15.10;;
43670;SDS011;29267;50.906;7.248;2024-01-11T08:17:50;42.30;;;15.93;;
43670;SDS011;29267;50.906;7.248;2024-01-11T08:20:16;36.33;;;15.77;;
43670;SDS011;29267;50.906;7.248;2024-01-11T08:22:42;41.43;;;14.30;;
43670;SDS011;29267;50.906;7.248;2024-01-11T08:25:11;44.50;;;16.07;;
43670;SDS011;29267;50.906;7.248;2024-01-11T08:27:38;42.43;;;16.40;;
43670;SDS011;29267;50.906;7.248;2024-01-11T08:30:04;42.50;;;16.30;;
43670;SDS011;29267;50.906;7.248;2024-01-11T08:32:30;47.60;;;18.37;;
43670;SDS011;29267;50.906;7.248;2024-01-11T08:34:58;38.23;;;15.87;;
43670;SDS011;29267;50.906;7.248;2024-01-11T08:37:24;33.10;;;16.20;;
43670;SDS011;29267;50.906;7.248;2024-01-11T08:39:50;34.57;;;14.67;;
43670;SDS011;29267;50.906;7.248;2024-01-11T08:42:15;44.23;;;15.87;;
43670;SDS011;29267;50.906;7.248;2024-01-11T08:44:41;42.00;;;14.63;;
43670;SDS011;29267;50.906;7.248;2024-01-11T08:47:14;37.60;;;13.67;;
43670;SDS011;29267;50.906;7.248;2024-01-11T08:49:39;40.60;;;14.10;;
43670;SDS011;29267;50.906;7.248;2024-01-11T08:52:05;36.47;;;14.60;;
43670;SDS011;29267;50.906;7.248;2024-01-11T08:54:33;56.43;;;14.67;;
43670;SDS011;29267;50.906;7.248;2024-01-11T08:56:59;38.13;;;15.80;;
43670;SDS011;29267;50.906;7.248;2024-01-11T08:59:24;39.20;;;13.53;;
43670;SDS011;29267;50.906;7.248;2024-01-11T09:01:51;38.37;;;14.87;;
43670;SDS011;29267;50.906;7.248;2024-01-11T09:04:17;36.17;;;13.10;;
43670;SDS011;29267;50.906;7.248;2024-01-11T09:06:43;38.10;;;14.27;;
43670;SDS011;29267;50.906;7.248;2024-01-11T09:09:12;36.73;;;13.67;;
43670;SDS011;29267;50.906;7.248;2024-01-11T09:11:38;39.13;;;14.77;;
43670;SDS011;29267;50.906;7.248;2024-01-11T09:14:08;40.13;;;14.00;;
43670;SDS011;29267;50.906;7.248;2024-01-11T09:16:36;37.28;;;15.20;;
43670;SDS011;29267;50.906;7.248;2024-01-11T09:19:02;33.55;;;15.63;;
43670;SDS011;29267;50.906;7.248;2024-01-11T09:21:27;40.00;;;15.32;;
43670;SDS011;29267;50.906;7.248;2024-01-11T09:23:53;36.85;;;13.95;;
43670;SDS011;29267;50.906;7.248;2024-01-11T09:26:18;47.28;;;17.02;;
43670;SDS011;29267;50.906;7.248;2024-01-11T09:28:44;45.78;;;17.38;;
43670;SDS011;29267;50.906;7.248;2024-01-11T09:31:10;31.50;;;14.38;;
43670;SDS011;29267;50.906;7.248;2024-01-11T09:33:36;38.40;;;14.48;;
43670;SDS011;29267;50.906;7.248;2024-01-11T09:36:02;38.25;;;15.35;;
43670;SDS011;29267;50.906;7.248;2024-01-11T09:38:28;47.17;;;17.00;;
43670;SDS011;29267;50.906;7.248;2024-01-11T09:41:05;46.20;;;15.55;;
43670;SDS011;29267;50.906;7.248;2024-01-11T09:43:35;37.38;;;14.85;;
43670;SDS011;29267;50.906;7.248;2024-01-11T09:46:05;45.55;;;16.40;;
43670;SDS011;29267;50.906;7.248;2024-01-11T09:48:34;37.78;;;15.77;;
43670;SDS011;29267;50.906;7.248;2024-01-11T09:51:01;43.95;;;17.92;;
43670;SDS011;29267;50.906;7.248;2024-01-11T09:53:28;43.10;;;14.73;;
43670;SDS011;29267;50.906;7.248;2024-01-11T09:55:58;41.00;;;15.95;;
43670;SDS011;29267;50.906;7.248;2024-01-11T09:58:29;31.08;;;14.15;;
43670;SDS011;29267;50.906;7.248;2024-01-11T10:00:55;42.20;;;17.10;;
43670;SDS011;29267;50.906;7.248;2024-01-11T10:03:24;46.92;;;16.90;;
43670;SDS011;29267;50.906;7.248;2024-01-11T10:05:51;45.33;;;17.38;;
43670;SDS011;29267;50.906;7.248;2024-01-11T10:08:21;47.72;;;17.20;;
43670;SDS011;29267;50.906;7.248;2024-01-11T10:10:48;45.17;;;17.80;;
43670;SDS011;29267;50.906;7.248;2024-01-11T10:13:15;41.88;;;15.68;;
43670;SDS011;29267;50.906;7.248;2024-01-11T10:15:43;45.00;;;18.27;;
43670;SDS011;29267;50.906;7.248;2024-01-11T10:18:09;40.78;;;16.17;;
43670;SDS011;29267;50.906;7.248;2024-01-11T10:20:35;43.85;;;18.27;;
43670;SDS011;29267;50.906;7.248;2024-01-11T10:23:02;42.42;;;17.17;;
43670;SDS011;29267;50.906;7.248;2024-01-11T10:25:28;47.13;;;16.42;;
43670;SDS011;29267;50.906;7.248;2024-01-11T10:27:54;45.85;;;16.58;;
43670;SDS011;29267;50.906;7.248;2024-01-11T10:30:20;43.00;;;17.23;;
43670;SDS011;29267;50.906;7.248;2024-01-11T10:32:47;42.85;;;18.27;;
43670;SDS011;29267;50.906;7.248;2024-01-11T10:35:14;59.45;;;22.80;;
43670;SDS011;29267;50.906;7.248;2024-01-11T10:37:42;55.03;;;20.67;;
43670;SDS011;29267;50.906;7.248;2024-01-11T10:40:09;48.50;;;19.48;;
43670;SDS011;29267;50.906;7.248;2024-01-11T10:42:43;49.45;;;18.73;;
43670;SDS011;29267;50.906;7.248;2024-01-11T10:45:11;44.92;;;19.02;;
43670;SDS011;29267;50.906;7.248;2024-01-11T10:50:17;41.22;;;17.13;;
43670;SDS011;29267;50.906;7.248;2024-01-11T10:52:48;48.50;;;17.85;;
43670;SDS011;29267;50.906;7.248;2024-01-11T10:55:27;40.63;;;17.85;;
43670;SDS011;29267;50.906;7.248;2024-01-11T10:57:56;44.92;;;19.92;;
43670;SDS011;29267;50.906;7.248;2024-01-11T11:00:24;48.35;;;19.80;;
43670;SDS011;29267;50.906;7.248;2024-01-11T11:02:50;46.40;;;19.13;;
43670;SDS011;29267;50.906;7.248;2024-01-11T11:05:19;48.10;;;19.20;;
43670;SDS011;29267;50.906;7.248;2024-01-11T11:07:47;45.97;;;20.42;;
43670;SDS011;29267;50.906;7.248;2024-01-11T11:10:17;41.20;;;20.33;;
43670;SDS011;29267;50.906;7.248;2024-01-11T11:12:44;42.60;;;20.50;;
43670;SDS011;29267;50.906;7.248;2024-01-11T11:15:12;45.40;;;19.88;;
43670;SDS011;29267;50.906;7.248;2024-01-11T11:17:38;47.05;;;18.42;;
43670;SDS011;29267;50.906;7.248;2024-01-11T11:20:06;44.38;;;18.63;;
43670;SDS011;29267;50.906;7.248;2024-01-11T11:22:36;46.80;;;19.52;;
43670;SDS011;29267;50.906;7.248;2024-01-11T11:25:44;45.58;;;18.70;;
43670;SDS011;29267;50.906;7.248;2024-01-11T11:27:50;45.45;;;18.98;;
43670;SDS011;29267;50.906;7.248;2024-01-11T11:30:18;47.85;;;18.80;;
43670;SDS011;29267;50.906;7.248;2024-01-11T11:32:45;43.47;;;18.85;;
43670;SDS011;29267;50.906;7.248;2024-01-11T11:35:11;43.78;;;20.85;;
43670;SDS011;29267;50.906;7.248;2024-01-11T11:37:37;46.53;;;20.63;;
43670;SDS011;29267;50.906;7.248;2024-01-11T11:40:04;54.28;;;20.52;;
43670;SDS011;29267;50.906;7.248;2024-01-11T11:42:34;47.63;;;20.17;;
43670;SDS011;29267;50.906;7.248;2024-01-11T11:45:00;46.33;;;19.42;;
43670;SDS011;29267;50.906;7.248;2024-01-11T11:47:33;44.85;;;19.30;;
43670;SDS011;29267;50.906;7.248;2024-01-11T11:50:04;39.47;;;18.13;;
43670;SDS011;29267;50.906;7.248;2024-01-11T11:52:32;51.65;;;21.02;;
43670;SDS011;29267;50.906;7.248;2024-01-11T11:54:59;44.13;;;18.50;;
43670;SDS011;29267;50.906;7.248;2024-01-11T11:57:27;57.00;;;20.08;;
43670;SDS011;29267;50.906;7.248;2024-01-11T11:59:54;42.72;;;17.73;;
43670;SDS011;29267;50.906;7.248;2024-01-11T12:02:22;35.08;;;17.15;;
43670;SDS011;29267;50.906;7.248;2024-01-11T12:04:49;43.95;;;18.10;;
43670;SDS011;29267;50.906;7.248;2024-01-11T12:07:15;51.83;;;20.80;;
43670;SDS011;29267;50.906;7.248;2024-01-11T12:09:41;45.33;;;18.40;;
43670;SDS011;29267;50.906;7.248;2024-01-11T12:12:07;45.35;;;18.42;;
43670;SDS011;29267;50.906;7.248;2024-01-11T12:14:33;45.08;;;18.08;;
43670;SDS011;29267;50.906;7.248;2024-01-11T12:16:59;44.92;;;19.30;;
43670;SDS011;29267;50.906;7.248;2024-01-11T12:19:25;55.45;;;20.60;;
43670;SDS011;29267;50.906;7.248;2024-01-11T12:21:51;40.75;;;18.35;;
43670;SDS011;29267;50.906;7.248;2024-01-11T12:24:17;41.45;;;18.55;;
43670;SDS011;29267;50.906;7.248;2024-01-11T12:26:43;49.83;;;20.00;;
43670;SDS011;29267;50.906;7.248;2024-01-11T12:29:09;48.15;;;17.48;;
43670;SDS011;29267;50.906;7.248;2024-01-11T12:31:35;41.38;;;18.67;;
43670;SDS011;29267;50.906;7.248;2024-01-11T12:34:03;51.30;;;20.10;;
43670;SDS011;29267;50.906;7.248;2024-01-11T12:36:30;47.08;;;19.80;;
43670;SDS011;29267;50.906;7.248;2024-01-11T12:38:57;37.33;;;18.63;;
43670;SDS011;29267;50.906;7.248;2024-01-11T12:41:23;47.53;;;18.60;;
43670;SDS011;29267;50.906;7.248;2024-01-11T12:43:49;41.40;;;20.13;;
43670;SDS011;29267;50.906;7.248;2024-01-11T12:46:15;47.83;;;20.40;;
43670;SDS011;29267;50.906;7.248;2024-01-11T12:48:41;49.25;;;18.25;;
43670;SDS011;29267;50.906;7.248;2024-01-11T12:51:07;51.20;;;17.15;;
43670;SDS011;29267;50.906;7.248;2024-01-11T12:53:33;46.20;;;20.30;;
43670;SDS011;29267;50.906;7.248;2024-01-11T12:56:06;53.75;;;19.42;;
43670;SDS011;29267;50.906;7.248;2024-01-11T12:58:35;48.53;;;19.38;;
43670;SDS011;29267;50.906;7.248;2024-01-11T13:01:03;52.47;;;19.92;;
43670;SDS011;29267;50.906;7.248;2024-01-11T13:03:29;44.33;;;18.48;;
43670;SDS011;29267;50.906;7.248;2024-01-11T13:05:56;35.33;;;17.75;;
43670;SDS011;29267;50.906;7.248;2024-01-11T13:08:22;43.13;;;19.95;;
43670;SDS011;29267;50.906;7.248;2024-01-11T13:10:48;40.40;;;18.85;;
43670;SDS011;29267;50.906;7.248;2024-01-11T13:13:14;41.40;;;17.75;;
43670;SDS011;29267;50.906;7.248;2024-01-11T13:15:40;39.30;;;17.67;;
43670;SDS011;29267;50.906;7.248;2024-01-11T13:18:05;39.90;;;17.17;;
43670;SDS011;29267;50.906;7.248;2024-01-11T13:20:31;41.17;;;17.63;;
43670;SDS011;29267;50.906;7.248;2024-01-11T13:25:42;49.67;;;18.67;;
43670;SDS011;29267;50.906;7.248;2024-01-11T13:28:09;48.78;;;20.38;;
43670;SDS011;29267;50.906;7.248;2024-01-11T13:30:38;38.90;;;16.90;;
43670;SDS011;29267;50.906;7.248;2024-01-11T13:33:05;44.05;;;18.33;;
43670;SDS011;29267;50.906;7.248;2024-01-11T13:35:32;46.05;;;19.02;;
43670;SDS011;29267;50.906;7.248;2024-01-11T13:38:01;43.45;;;19.13;;
43670;SDS011;29267;50.906;7.248;2024-01-11T13:40:28;45.55;;;19.77;;
43670;SDS011;29267;50.906;7.248;2024-01-11T13:42:57;40.95;;;19.10;;
43670;SDS011;29267;50.906;7.248;2024-01-11T13:45:23;43.75;;;20.23;;
43670;SDS011;29267;50.906;7.248;2024-01-11T13:47:50;47.35;;;19.92;;
43670;SDS011;29267;50.906;7.248;2024-01-11T13:50:16;47.95;;;19.83;;
43670;SDS011;29267;50.906;7.248;2024-01-11T13:52:42;52.42;;;22.83;;
43670;SDS011;29267;50.906;7.248;2024-01-11T13:55:09;49.38;;;20.85;;
43670;SDS011;29267;50.906;7.248;2024-01-11T13:57:36;50.83;;;21.80;;
43670;SDS011;29267;50.906;7.248;2024-01-11T14:00:02;54.95;;;24.08;;
43670;SDS011;29267;50.906;7.248;2024-01-11T14:02:29;50.63;;;21.65;;
43670;SDS011;29267;50.906;7.248;2024-01-11T14:04:54;54.30;;;21.60;;
43670;SDS011;29267;50.906;7.248;2024-01-11T14:07:20;53.35;;;22.17;;
43670;SDS011;29267;50.906;7.248;2024-01-11T14:09:45;53.40;;;22.38;;
43670;SDS011;29267;50.906;7.248;2024-01-11T14:12:11;44.92;;;19.90;;
43670;SDS011;29267;50.906;7.248;2024-01-11T14:14:37;48.97;;;21.42;;
43670;SDS011;29267;50.906;7.248;2024-01-11T14:17:02;50.53;;;22.48;;
43670;SDS011;29267;50.906;7.248;2024-01-11T14:19:28;45.42;;;21.20;;
43670;SDS011;29267;50.906;7.248;2024-01-11T14:21:53;54.17;;;22.73;;